Time;durP1;ratioP1;P1;durP2;ratioP2;P2;SDS_P1;SDS_P2;PMS_P1;PMS_P2;Temp;Humidity;BMP_temperature;BMP_pressure;BME280_temperature;BME280_humidity;BME280_pressure;Samples;Min_cycle;Max_cycle;Signal;HPM_P1;HPM_P2
2022/09/17 00:00:12;;;;;;;10.50;3.42;;;;;;;18.92;72.13;98410.28;4979629;28;20049;-92
2022/09/17 00:02:38;;;;;;;9.57;2.65;;;;;;;19.12;71.29;98402.25;4980587;28;20026;-91
2022/09/17 00:05:04;;;;;;;8.73;3.03;;;;;;;19.26;70.35;98404.56;4979976;28;20030;-93
2022/09/17 00:07:30;;;;;;;4.57;2.15;;;;;;;19.39;69.22;98414.28;4979723;28;20046;-91
2022/09/17 00:09:56;;;;;;;5.88;1.83;;;;;;;19.38;68.47;98408.03;4963310;28;20672;-92
2022/09/17 00:12:22;;;;;;;3.88;2.13;;;;;;;19.55;67.62;98425.22;4963588;28;20033;-91
2022/09/17 00:14:47;;;;;;;5.63;2.00;;;;;;;19.55;67.63;98404.16;4980086;28;20022;-92
2022/09/17 00:17:13;;;;;;;3.25;1.50;;;;;;;19.67;66.62;98416.94;4979670;28;20111;-92
2022/09/17 00:19:38;;;;;;;6.65;1.88;;;;;;;19.75;66.43;98407.00;4963529;28;20463;-91
2022/09/17 00:22:04;;;;;;;4.13;1.60;;;;;;;19.75;66.76;98409.72;4979866;28;20400;-92
2022/09/17 00:24:29;;;;;;;4.05;1.58;;;;;;;19.70;66.75;98413.53;4979564;28;20393;-92
2022/09/17 00:26:55;;;;;;;4.97;1.70;;;;;;;19.91;65.95;98424.16;4963798;28;20428;-91
2022/09/17 00:29:20;;;;;;;3.30;1.67;;;;;;;19.67;66.87;98405.19;4963062;28;20503;-91
2022/09/17 00:31:46;;;;;;;9.85;2.15;;;;;;;19.54;67.85;98399.03;4980987;28;20030;-91
2022/09/17 00:34:11;;;;;;;4.55;1.58;;;;;;;19.55;67.46;98387.00;4963404;28;20496;-91
2022/09/17 00:36:37;;;;;;;7.68;1.83;;;;;;;19.55;67.42;98384.25;4979848;28;20037;-92
2022/09/17 00:39:04;;;;;;;4.97;1.75;;;;;;;19.46;67.86;98384.41;4963360;28;20029;-91
2022/09/17 00:41:30;;;;;;;3.45;1.60;;;;;;;19.44;68.19;98388.63;4963406;28;20545;-91
2022/09/17 00:43:57;;;;;;;4.03;1.80;;;;;;;19.42;68.69;98380.78;4963283;28;20211;-92
2022/09/17 00:46:42;;;;;;;5.20;1.50;;;;;;;19.45;69.43;98390.25;4979852;28;20028;-92
2022/09/17 00:49:16;;;;;;;6.22;1.92;;;;;;;19.32;69.20;98390.31;4965249;28;20056;-91
2022/09/17 00:51:48;;;;;;;5.72;2.00;;;;;;;19.25;69.13;98387.38;4967435;28;20096;-92
2022/09/17 00:54:14;;;;;;;4.85;1.80;;;;;;;19.45;68.08;98401.16;4983355;28;20473;-92
2022/09/17 00:56:40;;;;;;;3.45;1.80;;;;;;;19.54;67.34;98386.19;4983257;28;20124;-91
2022/09/17 00:59:06;;;;;;;6.90;2.67;;;;;;;19.59;66.88;98385.13;4967070;28;20052;-92
2022/09/17 01:01:31;;;;;;;4.55;1.58;;;;;;;19.44;68.02;98375.78;4966935;28;20041;-92
2022/09/17 01:03:57;;;;;;;7.18;1.98;;;;;;;19.42;68.93;98382.75;4973356;28;20027;-91
2022/09/17 01:06:45;;;;;;;6.35;2.00;;;;;;;19.31;69.62;98377.81;4928612;28;20466;-91
2022/09/17 01:09:16;;;;;;;3.55;2.08;;;;;;;19.34;69.51;98374.38;4963428;28;20053;-91
2022/09/17 01:11:52;;;;;;;4.40;1.75;;;;;;;19.20;69.92;98357.66;4999174;28;20030;-92
2022/09/17 01:14:33;;;;;;;4.80;2.08;;;;;;;19.12;70.35;98358.59;4999129;28;20026;-91
2022/09/17 01:17:08;;;;;;;7.57;2.42;;;;;;;19.06;70.33;98355.31;5016562;28;20048;-91
2022/09/17 01:19:55;;;;;;;4.10;2.22;;;;;;;19.03;70.09;98355.22;4967258;28;20054;-92
2022/09/17 01:22:57;;;;;;;6.95;2.33;;;;;;;18.97;70.20;98350.03;4976249;28;20474;-92
2022/09/17 01:25:51;;;;;;;6.40;2.13;;;;;;;19.12;69.47;98350.41;4980983;28;20037;-91
2022/09/17 01:28:23;;;;;;;3.15;2.25;;;;;;;19.25;69.16;98345.66;4998662;28;20030;-91
2022/09/17 01:31:07;;;;;;;6.05;2.50;;;;;;;19.13;69.54;98346.53;4982785;28;20381;-92
2022/09/17 01:33:36;;;;;;;7.18;2.35;;;;;;;19.16;69.33;98346.63;5016266;28;20020;-92
2022/09/17 01:36:13;;;;;;;5.65;2.40;;;;;;;19.32;68.57;98351.28;4983090;28;20034;-92
2022/09/17 01:38:40;;;;;;;6.80;2.20;;;;;;;19.30;67.76;98327.09;4982384;28;20480;-92
2022/09/17 01:41:10;;;;;;;8.27;2.17;;;;;;;19.43;67.68;98314.16;4982510;28;20022;-92
2022/09/17 01:43:41;;;;;;;5.03;2.10;;;;;;;19.54;66.56;98319.84;4982548;28;20072;-91
2022/09/17 01:46:14;;;;;;;4.50;1.55;;;;;;;19.58;65.07;98310.59;4967051;28;20026;-91
2022/09/17 01:48:43;;;;;;;4.20;1.90;;;;;;;19.53;66.85;98327.25;4982809;28;20029;-91
2022/09/17 01:51:39;;;;;;;3.47;1.35;;;;;;;19.72;65.16;98331.25;4982858;28;20026;-92
2022/09/17 01:54:12;;;;;;;8.60;1.90;;;;;;;19.78;64.09;98319.69;4979422;28;20095;-92
2022/09/17 01:56:46;;;;;;;4.00;1.42;;;;;;;19.91;64.02;98325.03;4966478;28;20096;-91
2022/09/17 01:59:19;;;;;;;4.45;1.40;;;;;;;19.64;65.06;98311.13;4966893;28;20014;-92
2022/09/17 02:01:46;;;;;;;3.17;1.33;;;;;;;19.78;63.73;98305.22;4965838;28;20488;-92
2022/09/17 02:04:18;;;;;;;7.28;1.80;;;;;;;19.79;65.67;98304.06;4966102;28;20492;-91
2022/09/17 02:06:46;;;;;;;6.82;1.80;;;;;;;19.71;66.00;98305.84;4965980;28;20033;-91
2022/09/17 02:09:21;;;;;;;5.70;1.80;;;;;;;19.78;63.61;98294.31;4965564;28;20092;-92
2022/09/17 02:11:54;;;;;;;4.40;1.33;;;;;;;19.83;65.11;98301.44;4965923;28;20095;-91
2022/09/17 02:14:22;;;;;;;4.43;1.75;;;;;;;19.47;67.55;98304.09;4966344;28;20030;-92
2022/09/17 02:16:51;;;;;;;6.82;2.67;;;;;;;19.23;68.76;98298.81;4965677;28;20092;-91
2022/09/17 02:19:27;;;;;;;4.38;1.77;;;;;;;19.10;69.69;98290.72;4966233;28;20030;-91
2022/09/17 02:22:09;;;;;;;5.93;1.92;;;;;;;19.04;69.55;98288.63;4966069;28;20053;-92
2022/09/17 02:24:39;;;;;;;4.80;2.25;;;;;;;19.01;70.26;98292.03;4966221;28;20026;-92
2022/09/17 02:27:32;;;;;;;3.67;1.70;;;;;;;18.79;71.01;98280.59;4965528;28;20022;-92
2022/09/17 02:29:58;;;;;;;4.05;1.85;;;;;;;18.66;71.30;98268.13;4948062;28;20034;-92
2022/09/17 02:32:23;;;;;;;6.50;1.90;;;;;;;18.69;71.84;98281.06;4981509;28;20085;-92
2022/09/17 02:34:49;;;;;;;4.05;2.30;;;;;;;18.68;71.61;98282.22;4965210;28;20096;-91
2022/09/17 02:37:14;;;;;;;7.57;1.88;;;;;;;18.66;71.54;98281.78;4965199;28;20026;-91
2022/09/17 02:39:40;;;;;;;3.00;1.50;;;;;;;18.84;70.48;98288.50;4981237;28;20088;-92
2022/09/17 02:42:22;;;;;;;4.50;2.08;;;;;;;19.16;68.85;98302.97;4981855;28;20575;-92
2022/09/17 02:44:59;;;;;;;5.85;1.95;;;;;;;19.28;67.63;98304.00;4997293;28;20473;-92
2022/09/17 02:48:03;;;;;;;3.53;1.60;;;;;;;19.43;66.07;98316.09;4981278;28;20034;-92
2022/09/17 02:50:38;;;;;;;5.95;1.42;;;;;;;19.56;65.59;98331.22;4970375;28;20050;-92
2022/09/17 02:53:42;;;;;;;3.90;1.55;;;;;;;19.37;65.95;98304.63;4976271;28;20027;-91
2022/09/17 02:56:20;;;;;;;8.25;1.70;;;;;;;19.45;65.85;98303.66;4928154;28;20043;-92
2022/09/17 02:59:12;;;;;;;2.97;1.45;;;;;;;19.35;66.56;98304.19;4981169;28;20022;-91
2022/09/17 03:01:43;;;;;;;4.35;1.83;;;;;;;19.23;67.41;98296.09;4978122;28;20026;-91
2022/09/17 03:04:09;;;;;;;4.35;1.60;;;;;;;19.08;67.46;98264.94;4962209;28;20095;-91
2022/09/17 03:06:35;;;;;;;4.72;1.60;;;;;;;18.99;68.51;98256.94;4945751;28;20030;-91
2022/09/17 03:09:02;;;;;;;4.47;1.73;;;;;;;19.06;69.15;98256.31;4942936;28;20082;-91
2022/09/17 03:11:27;;;;;;;10.25;1.95;;;;;;;18.84;70.01;98244.84;4942683;28;20030;-90
2022/09/17 03:13:53;;;;;;;4.13;2.10;;;;;;;18.73;70.83;98230.13;4954818;28;20021;-90
2022/09/17 03:16:18;;;;;;;6.35;2.33;;;;;;;18.62;70.87;98231.81;4980655;28;20117;-92
2022/09/17 03:18:43;;;;;;;4.07;1.58;;;;;;;18.67;70.13;98217.91;4980517;28;20092;-90
2022/09/17 03:21:11;;;;;;;4.80;1.73;;;;;;;18.85;69.16;98232.03;5013904;28;20542;-91
2022/09/17 03:23:36;;;;;;;4.85;1.85;;;;;;;19.01;68.48;98245.66;4964749;28;20139;-92
2022/09/17 03:26:02;;;;;;;4.57;1.90;;;;;;;19.01;67.73;98237.47;4964681;28;20026;-92
2022/09/17 03:28:27;;;;;;;3.67;1.55;;;;;;;18.83;69.23;98229.66;4980504;28;20153;-91
2022/09/17 03:30:53;;;;;;;3.80;1.67;;;;;;;18.63;71.00;98208.84;4980250;28;20028;-91
2022/09/17 03:33:18;;;;;;;5.10;2.45;;;;;;;18.57;71.15;98213.75;4980534;28;20029;-91
2022/09/17 03:35:44;;;;;;;3.90;2.03;;;;;;;18.48;71.70;98204.97;4980748;28;20030;-91
2022/09/17 03:38:10;;;;;;;3.60;1.73;;;;;;;18.40;71.86;98203.19;4980505;28;20032;-92
2022/09/17 03:40:35;;;;;;;4.18;2.00;;;;;;;18.30;72.01;98191.66;4980371;28;20076;-90
2022/09/17 03:43:01;;;;;;;4.53;1.83;;;;;;;18.27;72.30;98192.34;4980858;28;20034;-91
2022/09/17 03:45:26;;;;;;;5.43;2.00;;;;;;;18.25;72.24;98183.72;4964464;28;20026;-91
2022/09/17 03:47:52;;;;;;;5.53;2.60;;;;;;;18.33;71.75;98176.53;4980196;28;20030;-91
2022/09/17 03:50:17;;;;;;;8.40;2.08;;;;;;;18.29;72.16;98181.09;4995997;28;20037;-92
2022/09/17 03:52:43;;;;;;;10.23;2.30;;;;;;;18.15;72.86;98157.78;4981025;28;20033;-91
2022/09/17 03:55:08;;;;;;;8.65;2.15;;;;;;;18.23;73.10;98169.66;4960154;28;20420;-92
2022/09/17 03:57:34;;;;;;;4.88;2.28;;;;;;;18.17;72.52;98160.16;4957931;28;20042;-92
2022/09/17 03:59:59;;;;;;;3.85;1.73;;;;;;;18.29;72.81;98181.09;4955516;28;20096;-92
2022/09/17 04:02:25;;;;;;;5.97;2.35;;;;;;;18.17;72.94;98179.22;4979652;28;20025;-92
2022/09/17 04:04:51;;;;;;;4.13;2.38;;;;;;;18.04;73.37;98170.31;4979692;28;20137;-91
2022/09/17 04:07:17;;;;;;;4.82;2.05;;;;;;;18.15;73.46;98174.13;4980053;28;20049;-92
2022/09/17 04:09:42;;;;;;;5.82;1.90;;;;;;;18.09;73.68;98156.44;4980016;28;20030;-91
2022/09/17 04:12:08;;;;;;;4.18;2.08;;;;;;;18.10;73.68;98168.94;4963609;28;20041;-91
2022/09/17 04:14:33;;;;;;;4.45;2.22;;;;;;;18.13;73.41;98164.72;4979573;28;20034;-91
2022/09/17 04:16:59;;;;;;;3.42;1.88;;;;;;;18.12;72.95;98158.47;4979751;28;20084;-91
2022/09/17 04:19:24;;;;;;;6.90;2.10;;;;;;;18.30;72.79;98158.97;4965812;28;20109;-91
2022/09/17 04:21:50;;;;;;;8.63;2.30;;;;;;;18.30;72.60;98153.50;4941117;28;20030;-91
2022/09/17 04:24:16;;;;;;;7.25;2.10;;;;;;;18.34;72.79;98153.59;4959630;28;20026;-91
2022/09/17 04:26:41;;;;;;;4.97;2.20;;;;;;;18.35;72.74;98150.50;4963466;28;20088;-91
2022/09/17 04:29:07;;;;;;;4.35;2.15;;;;;;;18.41;72.78;98145.59;4979007;28;20037;-91
2022/09/17 04:31:32;;;;;;;3.25;1.70;;;;;;;18.31;72.81;98133.28;4996702;28;20029;-91
2022/09/17 04:33:57;;;;;;;2.67;1.50;;;;;;;18.28;72.65;98144.91;4963302;28;20076;-91
2022/09/17 04:36:23;;;;;;;13.52;3.60;;;;;;;18.27;72.73;98146.03;4963801;28;20026;-91
2022/09/17 04:38:48;;;;;;;5.28;1.90;;;;;;;18.33;72.36;98152.81;4963400;28;20084;-91
2022/09/17 04:41:14;;;;;;;4.95;1.95;;;;;;;18.35;72.35;98157.91;4963411;28;20022;-91
2022/09/17 04:43:39;;;;;;;7.47;2.10;;;;;;;18.34;72.24;98159.84;4979364;28;20032;-91
2022/09/17 04:46:05;;;;;;;6.45;2.15;;;;;;;18.28;72.44;98153.06;4979496;28;20076;-91
2022/09/17 04:48:30;;;;;;;3.97;1.75;;;;;;;18.45;72.10;98187.38;4979511;28;20057;-91
2022/09/17 04:50:56;;;;;;;8.95;2.20;;;;;;;18.40;72.22;98176.72;4980238;28;20052;-91
2022/09/17 04:53:21;;;;;;;4.40;1.80;;;;;;;18.40;72.64;98171.25;4994350;28;20033;-91
2022/09/17 04:55:47;;;;;;;4.45;1.95;;;;;;;18.40;72.23;98165.81;4975968;28;20042;-91
2022/09/17 04:58:12;;;;;;;6.03;1.88;;;;;;;18.45;71.75;98181.09;4961305;28;20026;-91
2022/09/17 05:00:38;;;;;;;11.73;4.40;;;;;;;18.52;71.75;98179.38;4980230;28;20032;-91
2022/09/17 05:03:03;;;;;;;8.30;3.25;;;;;;;18.64;71.05;98169.53;4963663;28;20033;-91
2022/09/17 05:05:29;;;;;;;7.88;2.55;;;;;;;18.57;71.75;98168.22;4979876;28;20018;-91
2022/09/17 05:07:54;;;;;;;6.63;2.15;;;;;;;18.55;71.93;98164.25;4979585;28;20034;-92
2022/09/17 05:10:20;;;;;;;5.40;2.10;;;;;;;18.54;71.91;98154.50;4980123;28;20033;-92
2022/09/17 05:12:55;;;;;;;5.53;1.90;;;;;;;18.62;71.69;98161.72;4996479;28;20028;-91
2022/09/17 05:15:22;;;;;;;5.07;1.80;;;;;;;18.57;71.12;98146.41;4995164;28;20587;-91
2022/09/17 05:17:47;;;;;;;8.35;2.53;;;;;;;18.70;71.15;98151.78;4978944;28;20068;-92
2022/09/17 05:20:14;;;;;;;8.02;2.42;;;;;;;18.90;70.89;98178.00;4979208;28;20084;-92
2022/09/17 05:22:43;;;;;;;9.60;3.22;;;;;;;18.85;70.37;98167.34;4978956;28;20397;-92
2022/09/17 05:25:09;;;;;;;9.15;2.88;;;;;;;19.08;70.39;98175.69;4963297;28;20028;-92
2022/09/17 05:27:35;;;;;;;6.18;2.70;;;;;;;19.10;70.13;98164.44;4962863;28;20070;-92
2022/09/17 05:30:00;;;;;;;16.25;3.17;;;;;;;19.23;69.66;98159.66;4962834;28;20025;-93
2022/09/17 05:32:25;;;;;;;4.15;2.00;;;;;;;19.25;69.71;98160.88;4963297;28;20033;-92
2022/09/17 05:34:51;;;;;;;3.28;1.80;;;;;;;19.34;69.13;98147.00;4979525;28;20022;-91
2022/09/17 05:37:16;;;;;;;3.63;1.90;;;;;;;19.39;68.65;98141.28;4966394;28;20018;-92
2022/09/17 05:39:42;;;;;;;8.63;2.00;;;;;;;19.57;68.62;98156.13;4966785;28;20026;-92
2022/09/17 05:42:07;;;;;;;7.20;2.25;;;;;;;19.66;68.73;98158.63;4983554;28;20511;-92
2022/09/17 05:44:33;;;;;;;6.00;2.67;;;;;;;19.78;67.80;98150.31;4966513;28;20033;-92
2022/09/17 05:46:58;;;;;;;3.58;1.80;;;;;;;19.89;67.55;98134.16;4983136;28;20045;-91
2022/09/17 05:49:24;;;;;;;6.65;2.08;;;;;;;20.11;67.57;98140.81;4982105;28;20084;-93
2022/09/17 05:51:50;;;;;;;6.38;2.15;;;;;;;20.35;66.85;98133.41;4966025;28;20022;-92
2022/09/17 05:54:16;;;;;;;5.57;2.10;;;;;;;20.47;66.34;98119.56;4982197;28;20022;-92
2022/09/17 05:56:41;;;;;;;4.35;2.42;;;;;;;20.66;65.50;98120.69;4982005;28;20088;-92
2022/09/17 05:59:07;;;;;;;4.88;1.88;;;;;;;20.77;64.34;98114.22;4965245;28;20033;-90
2022/09/17 06:01:32;;;;;;;4.40;2.20;;;;;;;21.03;63.56;98120.88;4981539;28;20022;-91
2022/09/17 06:03:58;;;;;;;7.70;2.30;;;;;;;21.26;63.32;98120.00;4974208;28;20027;-90
2022/09/17 06:06:23;;;;;;;5.80;2.00;;;;;;;21.53;62.05;98127.03;4976586;28;20022;-91
2022/09/17 06:11:41;;;;;;;9.80;4.75;;;;;;;21.88;61.56;98133.34;5109066;23;20054;-90
2022/09/17 06:14:08;;;;;;;9.10;3.53;;;;;;;22.09;60.89;98135.50;4963653;28;20449;-89
2022/09/17 06:16:33;;;;;;;9.50;1.95;;;;;;;22.23;57.47;98132.94;4963994;28;20022;-89
2022/09/17 06:19:00;;;;;;;10.43;3.05;;;;;;;22.33;57.21;98129.53;4979424;28;20093;-89
2022/09/17 06:21:27;;;;;;;7.70;3.15;;;;;;;22.53;57.98;98148.50;4962407;28;20385;-90
2022/09/17 06:23:53;;;;;;;8.52;2.55;;;;;;;22.59;57.82;98131.31;4962801;28;20069;-89
2022/09/17 06:26:18;;;;;;;10.15;2.10;;;;;;;22.73;58.84;98127.91;4978172;28;20444;-90
2022/09/17 06:28:44;;;;;;;5.50;2.30;;;;;;;22.84;57.98;98127.19;4997016;28;20461;-90
2022/09/17 06:31:10;;;;;;;11.30;2.92;;;;;;;22.82;57.48;98137.75;4965059;28;20057;-89
2022/09/17 06:33:36;;;;;;;11.30;2.35;;;;;;;23.09;58.70;98144.66;4981151;28;20113;-92
2022/09/17 06:36:06;;;;;;;7.35;2.05;;;;;;;23.18;58.16;98142.38;5015308;28;20045;-91
2022/09/17 06:38:34;;;;;;;8.07;2.33;;;;;;;23.15;58.57;98140.38;4996909;28;20041;-91
2022/09/17 06:40:59;;;;;;;3.83;2.10;;;;;;;23.30;57.60;98148.69;4964713;28;20026;-91
2022/09/17 06:43:25;;;;;;;5.13;2.40;;;;;;;23.40;56.90;98158.97;4981268;28;20091;-91
2022/09/17 06:45:51;;;;;;;9.32;2.28;;;;;;;23.56;56.25;98150.44;4980536;28;20030;-90
2022/09/17 06:48:17;;;;;;;7.07;2.03;;;;;;;23.73;56.42;98152.44;4979176;28;20026;-91
2022/09/17 06:50:43;;;;;;;14.43;2.60;;;;;;;23.87;56.31;98167.47;4961358;28;20034;-90
2022/09/17 06:53:10;;;;;;;7.07;2.25;;;;;;;24.07;56.14;98154.16;4978941;28;20084;-91
2022/09/17 06:55:36;;;;;;;6.03;2.45;;;;;;;24.21;57.27;98162.47;4961457;28;20084;-91
2022/09/17 06:58:03;;;;;;;8.88;3.05;;;;;;;24.31;56.03;98158.94;4961216;28;20030;-91
2022/09/17 07:00:32;;;;;;;17.05;3.10;;;;;;;24.47;55.71;98168.81;4977283;28;20030;-90
2022/09/17 07:02:58;;;;;;;8.05;2.85;;;;;;;24.71;55.35;98184.56;4977534;28;20120;-91
2022/09/17 07:05:26;;;;;;;7.97;2.30;;;;;;;24.79;54.64;98175.13;4960051;28;20034;-91
2022/09/17 07:07:53;;;;;;;12.10;2.88;;;;;;;24.81;54.63;98175.53;4977396;28;20511;-91
2022/09/17 07:10:19;;;;;;;7.45;3.03;;;;;;;24.78;54.10;98162.56;4945630;28;20053;-92
2022/09/17 07:12:44;;;;;;;8.70;2.70;;;;;;;24.88;53.40;98179.47;4945339;28;20057;-92
2022/09/17 07:15:14;;;;;;;4.68;2.22;;;;;;;24.88;53.31;98165.69;4945138;28;20496;-91
2022/09/17 07:17:41;;;;;;;7.30;2.53;;;;;;;25.04;52.84;98170.81;4978514;28;20033;-92
2022/09/17 07:20:12;;;;;;;5.72;2.40;;;;;;;25.10;53.08;98161.75;4961440;28;20117;-90
2022/09/17 07:22:42;;;;;;;7.47;3.17;;;;;;;25.27;52.15;98179.47;4978005;28;20202;-92
2022/09/17 07:25:09;;;;;;;6.65;2.92;;;;;;;25.10;51.60;98159.00;4994498;28;20532;-93
2022/09/17 07:27:35;;;;;;;5.65;2.30;;;;;;;25.24;51.26;98166.50;4962055;28;20045;-92
2022/09/17 07:30:01;;;;;;;7.45;2.55;;;;;;;25.42;51.33;98171.94;4945481;28;20030;-91
2022/09/17 07:32:29;;;;;;;6.63;2.85;;;;;;;25.54;50.46;98168.75;4945305;28;20038;-95
2022/09/17 07:34:54;;;;;;;8.15;3.10;;;;;;;25.70;50.92;98151.78;4945844;28;20030;-91
2022/09/17 07:37:20;;;;;;;12.23;3.28;;;;;;;25.88;51.53;98165.50;4977649;28;20023;-94
2022/09/17 07:39:46;;;;;;;9.52;2.97;;;;;;;25.96;50.88;98150.53;4946457;28;20026;-95
2022/09/17 07:42:12;;;;;;;8.60;2.90;;;;;;;25.89;49.98;98156.06;4946921;28;20117;-94
2022/09/17 07:44:38;;;;;;;8.43;2.83;;;;;;;26.10;49.18;98168.97;4945342;28;20537;-94
2022/09/17 07:47:04;;;;;;;10.25;3.45;;;;;;;25.89;49.37;98158.00;4961860;28;20057;-94
2022/09/17 07:49:30;;;;;;;6.75;3.00;;;;;;;25.75;50.56;98165.19;4960557;28;20077;-93
2022/09/17 07:51:56;;;;;;;6.55;3.05;;;;;;;25.80;50.24;98148.19;4961865;28;20033;-91
2022/09/17 07:54:22;;;;;;;52.55;8.75;;;;;;;26.00;50.33;98156.00;4949838;28;20147;-92
2022/09/17 07:56:48;;;;;;;19.50;5.75;;;;;;;25.91;50.18;98137.16;4947274;28;20026;-94
2022/09/17 07:59:15;;;;;;;10.82;4.00;;;;;;;26.00;50.40;98137.50;4979080;28;20045;-89
2022/09/17 08:01:44;;;;;;;12.82;4.32;;;;;;;26.15;49.61;98153.97;4965499;28;20503;-89
2022/09/17 08:04:09;;;;;;;11.30;4.45;;;;;;;26.14;48.73;98125.59;4960999;28;20544;-92
2022/09/17 08:06:36;;;;;;;7.90;3.60;;;;;;;26.08;48.29;98129.19;4944147;28;20033;-91
2022/09/17 08:09:02;;;;;;;8.25;3.67;;;;;;;26.37;47.86;98149.09;4944211;28;20034;-91
2022/09/17 08:11:29;;;;;;;9.23;3.78;;;;;;;26.55;47.56;98158.03;4960282;28;20037;-92
2022/09/17 08:13:54;;;;;;;11.70;4.40;;;;;;;26.75;47.49;98169.38;4959605;28;20133;-89
2022/09/17 08:16:20;;;;;;;11.18;3.47;;;;;;;26.83;48.23;98167.31;4993953;28;20430;-91
2022/09/17 08:18:46;;;;;;;8.57;3.90;;;;;;;26.79;48.57;98152.75;4976216;28;20029;-92
2022/09/17 08:21:13;;;;;;;12.68;4.05;;;;;;;26.87;48.47;98159.00;4976486;28;20026;-92
2022/09/17 08:23:40;;;;;;;9.45;4.68;;;;;;;27.02;48.16;98168.75;4976300;28;20110;-91
2022/09/17 08:26:07;;;;;;;8.48;4.55;;;;;;;27.12;48.45;98164.31;4959739;28;20026;-91
2022/09/17 08:28:33;;;;;;;8.02;3.72;;;;;;;27.19;47.35;98156.75;4961058;28;20027;-90
2022/09/17 08:31:08;;;;;;;8.30;3.92;;;;;;;27.26;48.46;98160.66;4976184;28;20085;-92
2022/09/17 08:33:35;;;;;;;13.65;4.80;;;;;;;27.26;48.28;98166.97;4958466;28;20027;-94
2022/09/17 08:36:02;;;;;;;6.82;3.53;;;;;;;27.24;47.93;98154.75;4960170;28;20053;-92
2022/09/17 08:38:28;;;;;;;24.55;12.50;;;;;;;27.34;47.22;98164.91;4960317;28;20019;-92
2022/09/17 08:41:11;;;;;;;9.63;4.53;;;;;;;27.42;48.63;98178.25;4959997;28;20034;-93
2022/09/17 08:43:48;;;;;;;8.90;4.10;;;;;;;27.53;48.38;98180.13;4960228;28;20084;-92
2022/09/17 08:46:14;;;;;;;10.00;4.95;;;;;;;27.53;48.75;98163.53;4976732;28;20041;-93
2022/09/17 08:48:47;;;;;;;10.82;5.40;;;;;;;27.45;48.83;98145.44;4960096;28;20396;-91
2022/09/17 08:51:21;;;;;;;12.10;5.75;;;;;;;27.53;48.96;98141.41;4945457;28;20030;-92
2022/09/17 08:54:31;;;;;;;14.05;5.28;;;;;;;27.60;49.12;98147.66;4960103;28;20492;-93
2022/09/17 08:57:14;;;;;;;10.70;5.70;;;;;;;27.72;48.97;98140.78;4976006;28;20026;-92
2022/09/17 09:00:06;;;;;;;14.98;6.10;;;;;;;27.80;48.35;98125.66;4961252;28;20033;-92
2022/09/17 09:02:42;;;;;;;11.85;5.65;;;;;;;28.02;48.50;98140.03;4960789;28;20022;-92
2022/09/17 09:05:15;;;;;;;14.75;5.90;;;;;;;28.10;47.11;98146.25;4960439;28;20054;-93
2022/09/17 09:07:49;;;;;;;8.60;3.63;;;;;;;28.02;43.55;98120.66;4960145;28;20504;-93
2022/09/17 09:10:30;;;;;;;5.45;2.58;;;;;;;28.14;41.67;98127.63;4962037;28;20022;-93
2022/09/17 09:12:55;;;;;;;7.60;1.98;;;;;;;28.31;40.32;98102.88;4963069;28;20129;-93
2022/09/17 09:15:41;;;;;;;6.63;1.42;;;;;;;28.49;37.64;98117.22;4963957;28;20058;-92
2022/09/17 09:18:21;;;;;;;5.63;1.13;;;;;;;28.51;38.31;98108.50;4979424;28;20087;-92
2022/09/17 09:20:52;;;;;;;7.10;1.27;;;;;;;28.53;38.40;98117.94;4964254;28;20034;-91
2022/09/17 09:23:18;;;;;;;;;;;;;;;28.66;38.67;98134.78;4947933;28;20022;-93
2022/09/17 09:26:03;;;;;;;6.78;3.42;;;;;;;28.66;37.49;98132.00;4963040;28;19917;-92
2022/09/17 09:28:38;;;;;;;7.18;2.00;;;;;;;28.73;37.48;98120.78;4964437;28;20117;-93
2022/09/17 09:31:28;;;;;;;4.28;1.55;;;;;;;28.78;37.53;98117.56;4979812;28;20022;-92
2022/09/17 09:33:54;;;;;;;5.47;1.30;;;;;;;28.82;35.59;98109.16;4979237;28;20440;-90
2022/09/17 09:36:20;;;;;;;5.10;1.30;;;;;;;28.85;33.28;98104.78;4963227;28;20078;-91
2022/09/17 09:38:55;;;;;;;2.53;0.88;;;;;;;28.84;33.27;98095.66;4997591;28;20449;-94
2022/09/17 09:41:47;;;;;;;4.10;0.95;;;;;;;29.04;33.22;98108.78;4979288;28;20080;-93
2022/09/17 09:44:15;;;;;;;4.63;1.30;;;;;;;29.08;33.75;98096.44;4979651;28;20030;-90
2022/09/17 09:47:18;;;;;;;6.07;1.20;;;;;;;29.33;31.72;98115.38;4963386;28;20417;-92
2022/09/17 09:50:03;;;;;;;3.58;0.90;;;;;;;29.35;32.23;98096.34;4979175;28;20030;-93
2022/09/17 09:52:44;;;;;;;3.20;1.10;;;;;;;29.67;32.45;98103.22;4980256;28;20037;-91
2022/09/17 09:55:22;;;;;;;2.10;0.90;;;;;;;29.80;32.20;98106.13;4996590;28;20034;-93
2022/09/17 09:58:16;;;;;;;3.90;1.00;;;;;;;29.84;31.82;98087.41;4995743;28;20030;-92
2022/09/17 10:00:42;;;;;;;6.45;1.17;;;;;;;30.00;31.30;98079.13;4971104;28;20060;-92
2022/09/17 10:03:23;;;;;;;4.82;1.27;;;;;;;29.99;31.79;98074.03;4978584;28;20548;-92
2022/09/17 10:05:54;;;;;;;3.05;1.40;;;;;;;30.13;30.51;98092.31;4963711;28;20520;-91
2022/09/17 10:08:20;;;;;;;6.90;1.30;;;;;;;30.18;31.05;98089.06;4963110;28;20061;-92
2022/09/17 10:10:55;;;;;;;7.25;1.30;;;;;;;30.24;30.83;98095.66;4995841;28;20052;-91
2022/09/17 10:13:21;;;;;;;2.20;1.20;;;;;;;30.31;31.56;98091.94;4996708;28;20126;-92
2022/09/17 10:15:46;;;;;;;7.20;1.33;;;;;;;30.26;31.20;98070.22;4946361;28;20049;-92
2022/09/17 10:18:16;;;;;;;3.55;0.85;;;;;;;30.49;29.39;98095.09;4962765;28;20120;-93
2022/09/17 10:20:49;;;;;;;2.78;0.82;;;;;;;30.43;29.70;98066.25;4947526;28;20022;-92
2022/09/17 10:23:14;;;;;;;2.80;1.05;;;;;;;30.38;27.91;98083.44;4946989;28;20033;-92
2022/09/17 10:25:43;;;;;;;1.63;0.50;;;;;;;30.39;27.67;98080.22;4946368;28;20551;-92
2022/09/17 10:28:27;;;;;;;3.20;0.73;;;;;;;30.40;28.03;98070.69;4946888;28;20049;-92
2022/09/17 10:31:00;;;;;;;3.95;0.90;;;;;;;30.50;28.00;98084.75;4946139;28;20497;-91
2022/09/17 10:34:09;;;;;;;2.30;0.73;;;;;;;30.36;27.73;98061.66;4947264;28;20031;-92
2022/09/17 10:36:40;;;;;;;2.80;0.70;;;;;;;30.30;28.48;98063.41;4982192;28;20096;-92
2022/09/17 10:39:35;;;;;;;4.43;0.90;;;;;;;30.62;27.96;98082.03;4963517;28;20100;-92
2022/09/17 10:42:19;;;;;;;2.33;0.80;;;;;;;30.68;27.71;98073.97;4979712;28;20058;-94
2022/09/17 10:44:55;;;;;;;2.08;0.60;;;;;;;30.64;28.25;98066.94;4962972;28;20045;-91
2022/09/17 10:47:44;;;;;;;3.90;0.60;;;;;;;30.62;28.08;98081.25;4979013;28;20467;-92
2022/09/17 10:50:40;;;;;;;1.38;0.60;;;;;;;30.56;28.46;98066.34;4985482;28;20100;-92
2022/09/17 10:53:07;;;;;;;1.45;0.50;;;;;;;30.38;28.55;98059.25;4979148;28;20098;-92
2022/09/17 10:56:03;;;;;;;1.98;0.95;;;;;;;30.40;27.91;98064.34;4945615;28;20038;-93
2022/09/17 10:59:22;;;;;;;2.92;0.95;;;;;;;30.30;28.46;98087.59;4961182;28;20448;-92
2022/09/17 11:02:19;;;;;;;5.20;1.20;;;;;;;30.20;28.86;98094.97;4885370;29;20419;-93
2022/09/17 11:05:22;;;;;;;0.88;0.65;;;;;;;29.96;27.40;98088.75;4900277;29;20388;-92
2022/09/17 11:07:54;;;;;;;1.70;0.65;;;;;;;29.72;28.28;98097.19;4916423;29;20054;-93
2022/09/17 11:10:37;;;;;;;2.65;0.70;;;;;;;29.46;29.30;98117.53;4885059;29;20051;-94
2022/09/17 11:13:39;;;;;;;1.77;0.50;;;;;;;29.36;30.06;98147.03;4915791;29;20092;-92
2022/09/17 11:16:17;;;;;;;1.17;0.50;;;;;;;28.92;31.16;98166.38;4916070;29;20047;-92
2022/09/17 11:18:52;;;;;;;5.15;0.80;;;;;;;28.79;33.43;98201.44;4900535;29;20040;-92
2022/09/17 11:21:35;;;;;;;1.90;0.63;;;;;;;28.36;35.93;98252.66;4884079;29;20127;-92
2022/09/17 11:24:20;;;;;;;1.27;0.40;;;;;;;28.01;37.43;98267.72;4916527;29;20042;-92
2022/09/17 11:27:10;;;;;;;3.67;0.73;;;;;;;27.30;42.69;98278.28;4916235;29;20055;-93
2022/09/17 11:29:41;;;;;;;3.00;0.63;;;;;;;26.78;45.15;98250.63;4925981;29;20042;-92
2022/09/17 11:32:12;;;;;;;6.60;0.90;;;;;;;26.50;46.16;98238.56;4936669;28;20058;-92
2022/09/17 11:34:43;;;;;;;2.92;0.80;;;;;;;26.04;48.09;98227.72;4976733;28;20026;-92
2022/09/17 11:37:47;;;;;;;5.00;0.90;;;;;;;25.78;48.54;98260.88;4962192;28;20109;-93
2022/09/17 11:40:21;;;;;;;1.15;0.60;;;;;;;25.43;48.15;98250.69;4976838;28;20038;-92
2022/09/17 11:42:55;;;;;;;1.58;0.63;;;;;;;24.94;50.73;98257.75;4960546;28;20030;-92
2022/09/17 11:45:28;;;;;;;1.77;0.70;;;;;;;24.55;54.10;98256.53;4961473;28;20045;-92
2022/09/17 11:48:03;;;;;;;2.00;0.63;;;;;;;24.34;52.43;98245.41;4961967;28;20027;-92
2022/09/17 11:50:31;;;;;;;3.55;1.00;;;;;;;24.27;52.69;98240.69;4961152;28;20501;-92
2022/09/17 11:53:39;;;;;;;3.15;0.55;;;;;;;24.04;52.83;98265.75;4960089;28;20026;-92